createdAt,value
2023-03-17T00:01:54.940Z,11.90
2023-03-17T00:04:25.865Z,11.90
2023-03-17T00:06:56.695Z,11.90
2023-03-17T00:09:25.507Z,11.90
2023-03-17T00:11:56.670Z,11.90
2023-03-17T00:14:25.005Z,11.90
2023-03-17T00:16:54.294Z,11.90
2023-03-17T00:19:31.404Z,11.90
2023-03-17T00:22:02.024Z,11.90
2023-03-17T00:24:31.254Z,11.90
2023-03-17T00:26:59.712Z,11.90
2023-03-17T00:29:28.102Z,11.80
2023-03-17T00:32:17.607Z,11.90
2023-03-17T00:34:46.330Z,11.90
2023-03-17T00:37:15.955Z,11.90
2023-03-17T00:39:44.245Z,11.80
2023-03-17T00:42:12.779Z,11.90
2023-03-17T00:44:41.565Z,11.80
2023-03-17T00:47:11.897Z,11.80
2023-03-17T00:49:40.289Z,11.80
2023-03-17T00:52:11.583Z,11.80
2023-03-17T00:54:41.277Z,11.80
2023-03-17T00:57:11.108Z,11.80
2023-03-17T00:59:41.867Z,11.80
2023-03-17T01:02:13.098Z,11.80
2023-03-17T01:04:47.780Z,11.80
2023-03-17T01:07:21.349Z,11.80
2023-03-17T01:09:51.498Z,11.80
2023-03-17T01:12:20.450Z,11.80
2023-03-17T01:14:50.650Z,11.80
2023-03-17T01:17:19.497Z,11.80
2023-03-17T01:19:48.679Z,11.80
2023-03-17T01:22:17.023Z,11.80
2023-03-17T01:24:48.217Z,11.80
2023-03-17T01:27:19.461Z,11.70
2023-03-17T01:29:47.743Z,11.70
2023-03-17T01:32:16.251Z,11.70
2023-03-17T01:34:44.529Z,11.70
2023-03-17T01:37:13.521Z,11.90
2023-03-17T01:39:42.223Z,11.70
2023-03-17T01:42:11.591Z,11.80
2023-03-17T01:45:01.008Z,11.70
2023-03-17T01:47:32.145Z,11.70
2023-03-17T01:50:05.279Z,11.70
2023-03-17T01:52:35.982Z,11.70
2023-03-17T01:55:07.988Z,11.70
2023-03-17T01:57:40.289Z,11.70
2023-03-17T02:00:16.190Z,11.70
2023-03-17T02:02:50.383Z,11.70
2023-03-17T02:05:22.503Z,11.70
2023-03-17T02:07:50.935Z,11.70
2023-03-17T02:10:20.879Z,11.70
2023-03-17T02:12:52.386Z,11.70
2023-03-17T02:15:23.005Z,11.70
2023-03-17T02:17:52.924Z,11.70
2023-03-17T02:21:15.446Z,11.70
2023-03-17T02:23:45.469Z,11.70
2023-03-17T02:26:13.825Z,11.70
2023-03-17T02:28:46.087Z,11.70
2023-03-17T02:31:16.579Z,11.70
2023-03-17T02:33:45.288Z,11.70
2023-03-17T02:36:13.752Z,11.70
2023-03-17T02:38:42.226Z,11.70
2023-03-17T02:41:12.216Z,11.70
2023-03-17T02:43:41.435Z,11.70
2023-03-17T02:46:09.963Z,11.70
2023-03-17T02:48:39.338Z,11.70
2023-03-17T02:51:08.410Z,11.60
2023-03-17T02:53:36.758Z,11.60
2023-03-17T02:56:05.877Z,11.60
2023-03-17T02:58:35.746Z,11.60
2023-03-17T03:01:04.273Z,11.60
2023-03-17T03:03:32.992Z,11.60
2023-03-17T03:06:03.170Z,11.60
2023-03-17T03:08:31.704Z,11.60
2023-03-17T03:11:00.403Z,11.60
2023-03-17T03:13:28.734Z,11.60
2023-03-17T03:15:58.490Z,11.60
2023-03-17T03:18:29.922Z,11.60
2023-03-17T03:20:58.206Z,11.60
2023-03-17T03:23:26.512Z,11.60
2023-03-17T03:25:54.840Z,11.60
2023-03-17T03:28:23.093Z,11.60
2023-03-17T03:30:51.455Z,11.60
2023-03-17T03:33:21.647Z,11.50
2023-03-17T03:35:50.054Z,11.50
2023-03-17T03:38:18.388Z,11.50
2023-03-17T03:40:46.901Z,11.50
2023-03-17T03:43:22.816Z,11.60
2023-03-17T03:45:52.526Z,11.70
2023-03-17T03:48:22.982Z,11.50
2023-03-17T03:50:51.526Z,11.50
2023-03-17T03:53:19.781Z,11.50
2023-03-17T03:55:48.207Z,11.50
2023-03-17T03:58:16.573Z,11.50
2023-03-17T04:00:44.894Z,11.50
2023-03-17T04:03:13.409Z,11.50
2023-03-17T04:05:43.241Z,11.50
2023-03-17T04:08:11.686Z,11.50
2023-03-17T04:10:39.962Z,11.50
2023-03-17T04:13:08.555Z,11.50
2023-03-17T04:15:37.551Z,11.50
2023-03-17T04:18:10.006Z,11.50
2023-03-17T04:20:38.661Z,11.50
2023-03-17T04:23:08.340Z,11.50
2023-03-17T04:25:36.956Z,11.50
2023-03-17T04:28:05.682Z,11.60
2023-03-17T04:30:34.546Z,11.40
2023-03-17T04:33:03.020Z,11.50
2023-03-17T04:35:31.616Z,11.50
2023-03-17T04:37:59.851Z,11.40
2023-03-17T04:40:29.771Z,11.50
2023-03-17T04:42:58.293Z,11.50
2023-03-17T04:45:26.697Z,11.50
2023-03-17T04:47:54.937Z,11.40
2023-03-17T04:50:23.583Z,11.50
2023-03-17T04:52:56.242Z,11.50
2023-03-17T04:55:24.541Z,11.40
2023-03-17T04:57:54.323Z,11.50
2023-03-17T05:00:23.058Z,11.40
2023-03-17T05:02:51.420Z,11.40
2023-03-17T05:05:19.950Z,11.40
2023-03-17T05:07:48.668Z,11.40
2023-03-17T05:10:16.986Z,11.40
2023-03-17T05:12:45.914Z,11.70
2023-03-17T05:15:15.953Z,11.40
2023-03-17T05:17:44.283Z,11.40
2023-03-17T05:20:13.601Z,11.40
2023-03-17T05:22:42.332Z,11.40
2023-03-17T05:25:11.099Z,11.40
2023-03-17T05:27:39.458Z,11.30
2023-03-17T05:30:08.793Z,11.30
2023-03-17T05:32:38.461Z,11.40
2023-03-17T05:35:07.542Z,11.40
2023-03-17T05:37:36.054Z,11.40
2023-03-17T05:40:04.649Z,11.30
2023-03-17T05:42:33.020Z,11.30
2023-03-17T05:45:05.289Z,11.30
2023-03-17T05:47:34.121Z,11.70
2023-03-17T05:50:04.784Z,11.30
2023-03-17T05:52:33.304Z,11.30
2023-03-17T05:55:01.535Z,11.30
2023-03-17T05:57:30.231Z,11.30
2023-03-17T05:59:58.616Z,11.30
2023-03-17T06:02:27.155Z,11.30
2023-03-17T06:04:55.839Z,11.30
2023-03-17T06:07:25.691Z,11.30
2023-03-17T06:09:54.083Z,11.30
2023-03-17T06:12:22.772Z,11.30
2023-03-17T06:14:51.090Z,11.30
2023-03-17T06:17:19.910Z,11.30
2023-03-17T06:19:51.742Z,11.30
2023-03-17T06:22:20.118Z,11.30
2023-03-17T06:24:49.966Z,11.30
2023-03-17T06:27:18.516Z,11.30
2023-03-17T06:29:47.506Z,11.30
2023-03-17T06:32:20.729Z,11.30
2023-03-17T06:34:49.428Z,11.30
2023-03-17T06:37:17.674Z,11.30
2023-03-17T06:39:45.971Z,11.40
2023-03-17T06:42:16.080Z,11.40
2023-03-17T06:44:44.455Z,11.40
2023-03-17T06:47:12.910Z,11.30
2023-03-17T06:49:41.293Z,11.40
2023-03-17T06:52:09.866Z,11.40
2023-03-17T06:54:38.535Z,11.40
2023-03-17T06:57:06.973Z,11.30
2023-03-17T06:59:36.970Z,11.40
2023-03-17T07:02:05.538Z,11.40
2023-03-17T07:04:35.542Z,11.40
2023-03-17T07:07:05.213Z,11.40
2023-03-17T07:09:34.560Z,11.40
2023-03-17T07:12:05.089Z,11.40
2023-03-17T07:14:35.659Z,11.50
2023-03-17T07:17:07.035Z,11.40
2023-03-17T07:19:36.194Z,11.40
2023-03-17T07:22:04.584Z,11.50
2023-03-17T07:24:33.693Z,11.50
2023-03-17T07:27:02.024Z,11.50
2023-03-17T07:29:32.462Z,11.50
2023-03-17T07:32:00.800Z,11.50
2023-03-17T07:34:30.715Z,11.50
2023-03-17T07:36:59.059Z,11.50
2023-03-17T07:39:27.755Z,11.50
2023-03-17T07:41:56.324Z,11.50
2023-03-17T07:44:25.946Z,11.50
2023-03-17T07:46:55.024Z,11.50
2023-03-17T07:49:39.962Z,11.60
2023-03-17T07:52:12.662Z,11.60
2023-03-17T07:54:43.085Z,11.60
2023-03-17T07:57:11.584Z,11.60
2023-03-17T07:59:41.750Z,11.60
2023-03-17T08:02:15.763Z,11.60
2023-03-17T08:04:44.380Z,11.60
2023-03-17T08:07:14.741Z,11.60
2023-03-17T08:09:43.074Z,11.60
2023-03-17T08:12:12.223Z,11.70
2023-03-17T08:14:41.515Z,11.70
2023-03-17T08:17:10.498Z,11.70
2023-03-17T08:19:39.313Z,11.70
2023-03-17T08:22:08.028Z,11.70
2023-03-17T08:24:39.709Z,11.70
2023-03-17T08:27:08.765Z,11.80
2023-03-17T08:29:37.096Z,11.70
2023-03-17T08:32:06.011Z,11.80
2023-03-17T08:34:34.928Z,11.80
2023-03-17T08:37:03.951Z,11.80
2023-03-17T08:39:32.335Z,11.80
2023-03-17T08:42:02.157Z,11.80
2023-03-17T08:44:30.634Z,11.80
2023-03-17T08:46:59.195Z,11.90
2023-03-17T08:49:28.545Z,11.80
2023-03-17T08:51:56.882Z,11.80
2023-03-17T08:54:25.194Z,11.90
2023-03-17T08:56:53.768Z,11.90
2023-03-17T08:59:23.785Z,11.90
2023-03-17T09:01:52.638Z,12.00
2023-03-17T09:04:21.032Z,12.00
2023-03-17T09:07:02.689Z,12.00
2023-03-17T09:09:32.131Z,12.00
2023-03-17T09:12:01.029Z,12.00
2023-03-17T09:14:40.098Z,12.10
2023-03-17T09:17:12.307Z,12.10
2023-03-17T09:19:41.541Z,12.10
2023-03-17T09:22:14.019Z,12.10
2023-03-17T09:24:42.454Z,12.10
2023-03-17T09:27:10.823Z,12.20
2023-03-17T09:29:41.360Z,12.20
2023-03-17T09:32:10.352Z,12.20
2023-03-17T09:34:38.750Z,12.20
2023-03-17T09:37:09.784Z,12.30
2023-03-17T09:39:38.639Z,12.30
2023-03-17T09:42:23.470Z,12.30
2023-03-17T09:45:15.629Z,12.30
2023-03-17T09:48:09.961Z,12.30
2023-03-17T09:50:45.886Z,12.30
2023-03-17T09:53:19.921Z,12.40
2023-03-17T09:55:51.783Z,12.40
2023-03-17T09:58:27.099Z,12.40
2023-03-17T10:00:56.759Z,12.40
2023-03-17T10:03:26.236Z,12.40
2023-03-17T10:06:00.169Z,12.50
2023-03-17T10:08:32.568Z,12.50
2023-03-17T10:11:10.940Z,12.50
2023-03-17T10:13:52.100Z,12.50
2023-03-17T10:16:28.572Z,12.60
2023-03-17T10:19:04.057Z,12.60
2023-03-17T10:21:34.752Z,12.60
2023-03-17T10:24:05.409Z,12.60
2023-03-17T10:26:39.834Z,12.60
2023-03-17T10:29:14.971Z,12.70
2023-03-17T10:31:44.889Z,12.60
2023-03-17T10:34:15.869Z,12.70
2023-03-17T10:36:47.878Z,12.70
2023-03-17T10:39:19.731Z,12.70
2023-03-17T10:41:55.595Z,12.80
2023-03-17T10:44:37.629Z,12.80
2023-03-17T10:47:20.371Z,12.80
2023-03-17T10:49:48.958Z,12.80
2023-03-17T10:52:22.378Z,12.80
2023-03-17T10:54:52.657Z,12.80
2023-03-17T10:57:22.177Z,12.90
2023-03-17T10:59:59.254Z,12.80
2023-03-17T11:02:31.600Z,12.90
2023-03-17T11:05:07.636Z,12.90
2023-03-17T11:07:39.480Z,12.90
2023-03-17T11:10:19.020Z,13.00
2023-03-17T11:12:50.403Z,13.00
2023-03-17T11:15:20.306Z,13.00
2023-03-17T11:17:59.128Z,13.10
2023-03-17T11:20:50.041Z,13.10
2023-03-17T11:23:35.003Z,13.10
2023-03-17T11:26:28.902Z,13.10
2023-03-17T11:29:09.901Z,13.20
2023-03-17T11:31:47.797Z,13.30
2023-03-17T11:34:23.448Z,13.30
2023-03-17T11:37:03.974Z,13.30
2023-03-17T11:39:41.379Z,13.30
2023-03-17T11:42:16.210Z,13.40
2023-03-17T11:45:03.777Z,13.40
2023-03-17T11:48:01.182Z,13.40
2023-03-17T11:50:39.369Z,13.50
2023-03-17T11:53:32.369Z,13.50
2023-03-17T11:56:04.274Z,13.60
2023-03-17T11:58:37.071Z,13.60
2023-03-17T12:01:09.359Z,13.60
2023-03-17T12:03:46.097Z,13.70
2023-03-17T12:06:20.508Z,14.00
2023-03-17T12:08:54.685Z,13.70
2023-03-17T12:11:28.376Z,13.70
2023-03-17T12:14:00.803Z,13.80
2023-03-17T12:16:33.205Z,13.80
2023-03-17T12:19:10.183Z,13.80
2023-03-17T12:21:45.973Z,13.80
2023-03-17T12:24:20.164Z,13.90
2023-03-17T12:26:55.667Z,13.90
2023-03-17T12:29:31.485Z,14.00
2023-03-17T12:32:05.771Z,14.00
2023-03-17T12:34:40.358Z,14.00
2023-03-17T12:37:10.773Z,14.10
2023-03-17T12:39:42.550Z,14.10
2023-03-17T12:42:22.046Z,14.10
2023-03-17T12:45:08.019Z,14.10
2023-03-17T12:47:58.540Z,14.20
2023-03-17T12:50:51.683Z,14.20
2023-03-17T12:53:29.649Z,14.20
2023-03-17T12:56:04.644Z,14.30
2023-03-17T12:58:38.061Z,14.30
2023-03-17T13:01:18.441Z,14.30
2023-03-17T13:04:02.732Z,14.30
2023-03-17T13:06:34.796Z,14.30
2023-03-17T13:09:45.308Z,14.40
2023-03-17T13:12:59.476Z,14.40
2023-03-17T13:15:49.376Z,14.40
2023-03-17T13:18:53.842Z,14.40
2023-03-17T13:21:26.461Z,14.40
2023-03-17T13:23:58.513Z,14.50
2023-03-17T13:26:59.835Z,14.50
2023-03-17T13:29:47.215Z,14.50
2023-03-17T13:32:39.862Z,14.60
2023-03-17T13:35:22.565Z,14.60
2023-03-17T13:38:11.698Z,14.60
2023-03-17T13:40:50.933Z,14.60
2023-03-17T13:43:43.334Z,14.60
2023-03-17T13:46:34.938Z,14.80
2023-03-17T13:49:24.177Z,14.70
2023-03-17T13:51:59.818Z,14.70
2023-03-17T13:54:34.721Z,14.70
2023-03-17T13:57:26.629Z,14.70
2023-03-17T13:59:58.735Z,14.70
2023-03-17T14:02:31.763Z,14.70
2023-03-17T14:05:04.205Z,14.80
2023-03-17T14:07:40.627Z,14.70
2023-03-17T14:10:15.646Z,14.80
2023-03-17T14:12:50.284Z,14.80
2023-03-17T14:15:26.035Z,14.80
2023-03-17T14:17:58.652Z,14.80
2023-03-17T14:20:29.734Z,14.90
2023-03-17T14:23:01.303Z,14.90
2023-03-17T14:25:34.632Z,14.90
2023-03-17T14:28:09.402Z,14.90
2023-03-17T14:30:40.180Z,15.00
2023-03-17T14:33:19.629Z,14.90
2023-03-17T14:35:52.768Z,15.00
2023-03-17T14:38:23.312Z,15.00
2023-03-17T14:41:00.667Z,15.00
2023-03-17T14:43:29.509Z,15.10
2023-03-17T14:46:01.625Z,15.10
2023-03-17T14:48:33.317Z,15.10
2023-03-17T14:51:06.680Z,15.10
2023-03-17T14:53:36.752Z,15.20
2023-03-17T14:56:05.477Z,15.20
2023-03-17T14:58:38.470Z,15.20
2023-03-17T15:01:09.255Z,15.30
2023-03-17T15:03:41.875Z,15.30
2023-03-17T15:06:24.856Z,15.30
2023-03-17T15:08:53.867Z,15.30
2023-03-17T15:11:25.822Z,15.30
2023-03-17T15:14:07.282Z,15.30
2023-03-17T15:16:37.040Z,15.40
2023-03-17T15:19:08.704Z,15.40
2023-03-17T15:21:41.300Z,15.40
2023-03-17T15:24:33.066Z,15.40
2023-03-17T15:27:03.559Z,15.40
2023-03-17T15:29:32.134Z,15.40
2023-03-17T15:32:20.254Z,15.40
2023-03-17T15:34:49.930Z,15.30
2023-03-17T15:37:21.584Z,15.40
2023-03-17T15:39:50.812Z,15.30
2023-03-17T15:42:20.637Z,15.40
2023-03-17T15:44:49.047Z,15.40
2023-03-17T15:47:22.723Z,15.40
2023-03-17T15:49:52.140Z,15.40
2023-03-17T15:52:25.100Z,15.40
2023-03-17T15:54:54.150Z,15.30
2023-03-17T15:57:22.851Z,15.40
2023-03-17T15:59:51.884Z,15.40
2023-03-17T16:02:29.879Z,15.40
2023-03-17T16:04:58.996Z,15.30
2023-03-17T16:07:30.859Z,15.30
2023-03-17T16:09:59.536Z,15.30
2023-03-17T16:12:28.216Z,15.40
2023-03-17T16:14:56.581Z,15.30
2023-03-17T16:17:29.047Z,15.30
2023-03-17T16:19:58.513Z,15.30
2023-03-17T16:22:38.543Z,15.30
2023-03-17T16:25:19.370Z,15.30
2023-03-17T16:27:48.096Z,15.30
2023-03-17T16:30:18.392Z,15.30
2023-03-17T16:32:46.954Z,15.30
2023-03-17T16:35:16.863Z,15.30
2023-03-17T16:37:47.338Z,15.30
2023-03-17T16:40:20.220Z,15.30
2023-03-17T16:42:49.043Z,15.30
2023-03-17T16:45:22.669Z,15.30
2023-03-17T16:47:51.218Z,15.20
2023-03-17T16:50:23.118Z,15.20
2023-03-17T16:52:52.950Z,15.20
2023-03-17T16:55:22.734Z,15.20
2023-03-17T16:57:53.441Z,15.20
2023-03-17T17:00:24.869Z,15.20
2023-03-17T17:02:54.067Z,15.20
2023-03-17T17:05:24.725Z,15.20
2023-03-17T17:07:59.657Z,15.20
2023-03-17T17:10:30.917Z,15.20
2023-03-17T17:12:59.799Z,15.20
2023-03-17T17:15:28.438Z,15.10
2023-03-17T17:18:00.639Z,15.10
2023-03-17T17:20:31.209Z,15.10
2023-03-17T17:23:02.700Z,15.10
2023-03-17T17:25:31.510Z,15.10
2023-03-17T17:28:00.318Z,15.10
2023-03-17T17:30:31.242Z,15.10
2023-03-17T17:33:01.330Z,15.10
2023-03-17T17:35:34.036Z,15.10
2023-03-17T17:38:04.148Z,15.10
2023-03-17T17:40:33.465Z,15.00
2023-03-17T17:43:02.024Z,15.00
2023-03-17T17:45:30.696Z,15.00
2023-03-17T17:47:59.131Z,15.00
2023-03-17T17:50:30.253Z,15.00
2023-03-17T17:53:04.996Z,15.00
2023-03-17T17:55:35.430Z,15.00
2023-03-17T17:58:03.961Z,15.00
2023-03-17T18:00:32.645Z,15.00
2023-03-17T18:03:01.292Z,15.00
2023-03-17T18:05:29.861Z,15.00
2023-03-17T18:07:58.241Z,15.00
2023-03-17T18:10:29.430Z,15.00
2023-03-17T18:12:59.777Z,15.00
2023-03-17T18:15:28.710Z,15.00
2023-03-17T18:17:57.633Z,15.00
2023-03-17T18:20:27.143Z,15.00
2023-03-17T18:22:55.871Z,14.90
2023-03-17T18:25:25.450Z,15.00
2023-03-17T18:27:54.283Z,14.90
2023-03-17T18:30:26.675Z,14.90
2023-03-17T18:32:57.243Z,14.90
2023-03-17T18:35:29.777Z,14.90
2023-03-17T18:37:59.033Z,14.90
2023-03-17T18:40:27.977Z,14.90
2023-03-17T18:42:56.490Z,14.90
2023-03-17T18:45:26.477Z,14.90
2023-03-17T18:47:54.824Z,14.90
2023-03-17T18:50:27.474Z,14.90
2023-03-17T18:52:56.002Z,14.90
2023-03-17T18:55:24.609Z,14.90
2023-03-17T18:57:54.556Z,14.90
2023-03-17T19:00:25.324Z,14.90
2023-03-17T19:02:55.336Z,14.80
2023-03-17T19:05:24.477Z,14.90
2023-03-17T19:07:53.454Z,14.90
2023-03-17T19:10:21.954Z,14.90
2023-03-17T19:12:50.702Z,14.90
2023-03-17T19:15:19.610Z,14.80
2023-03-17T19:17:50.330Z,14.80
2023-03-17T19:20:20.573Z,14.90
2023-03-17T19:22:48.924Z,14.80
2023-03-17T19:25:17.953Z,14.80
2023-03-17T19:27:46.784Z,14.90
2023-03-17T19:30:16.277Z,14.80
2023-03-17T19:32:44.974Z,14.80
2023-03-17T19:35:13.332Z,14.80
2023-03-17T19:37:43.227Z,14.80
2023-03-17T19:40:13.579Z,14.80
2023-03-17T19:42:42.090Z,14.80
2023-03-17T19:45:11.607Z,14.80
2023-03-17T19:47:40.777Z,14.80
2023-03-17T19:50:11.162Z,14.80
2023-03-17T19:52:39.529Z,14.80
2023-03-17T19:55:10.749Z,14.80
2023-03-17T19:57:39.182Z,14.80
2023-03-17T20:00:11.056Z,14.80
2023-03-17T20:02:39.429Z,14.80
2023-03-17T20:05:08.866Z,14.80
2023-03-17T20:07:37.646Z,14.80
2023-03-17T20:10:07.775Z,14.80
2023-03-17T20:12:38.658Z,14.80
2023-03-17T20:15:09.107Z,14.80
2023-03-17T20:17:37.636Z,14.80
2023-03-17T20:20:07.730Z,14.80
2023-03-17T20:22:36.112Z,14.80
2023-03-17T20:25:04.622Z,14.80
2023-03-17T20:27:35.908Z,14.80
2023-03-17T20:30:08.364Z,14.80
2023-03-17T20:32:36.835Z,14.80
2023-03-17T20:35:07.834Z,14.80
2023-03-17T20:37:37.290Z,14.80
2023-03-17T20:40:08.412Z,14.80
2023-03-17T20:42:37.460Z,14.80
2023-03-17T20:45:08.911Z,14.80
2023-03-17T20:47:37.630Z,14.80
2023-03-17T20:50:08.705Z,14.80
2023-03-17T20:52:38.222Z,14.80
2023-03-17T20:55:08.415Z,14.80
2023-03-17T20:57:39.580Z,14.80
2023-03-17T21:00:16.403Z,14.80
2023-03-17T21:02:45.880Z,14.80
2023-03-17T21:05:15.864Z,14.80
2023-03-17T21:07:44.829Z,14.80
2023-03-17T21:10:14.248Z,14.80
2023-03-17T21:12:42.843Z,14.80
2023-03-17T21:15:14.053Z,14.80
2023-03-17T21:17:43.236Z,14.80
2023-03-17T21:20:18.120Z,14.70
2023-03-17T21:22:46.556Z,14.80
2023-03-17T21:25:15.700Z,14.80
2023-03-17T21:27:44.313Z,14.80
2023-03-17T21:30:15.825Z,14.80
2023-03-17T21:32:47.076Z,14.80
2023-03-17T21:35:16.352Z,14.80
2023-03-17T21:37:44.838Z,14.80
2023-03-17T21:40:15.656Z,14.80
2023-03-17T21:42:44.417Z,14.80
2023-03-17T21:45:14.479Z,14.80
2023-03-17T21:47:42.888Z,14.80
2023-03-17T21:50:12.165Z,14.80
2023-03-17T21:52:40.524Z,14.80
2023-03-17T21:55:09.550Z,14.80
2023-03-17T21:57:38.860Z,14.80
2023-03-17T22:00:09.671Z,14.80
2023-03-17T22:02:45.043Z,14.80
2023-03-17T22:05:13.736Z,14.80
2023-03-17T22:07:42.030Z,14.80
2023-03-17T22:10:12.010Z,14.80
2023-03-17T22:12:40.482Z,14.80
2023-03-17T22:15:10.386Z,14.80
2023-03-17T22:17:39.709Z,14.80
2023-03-17T22:20:10.728Z,14.80
2023-03-17T22:22:39.189Z,14.80
2023-03-17T22:25:08.632Z,14.80
2023-03-17T22:27:37.579Z,14.80
2023-03-17T22:30:06.603Z,14.80
2023-03-17T22:32:35.237Z,14.80
2023-03-17T22:35:04.297Z,14.80
2023-03-17T22:37:37.813Z,14.80
2023-03-17T22:40:08.520Z,14.80
2023-03-17T22:42:37.024Z,14.80
2023-03-17T22:45:06.398Z,14.80
2023-03-17T22:47:34.943Z,14.80
2023-03-17T22:50:03.252Z,14.80
2023-03-17T22:52:31.579Z,14.80
2023-03-17T22:55:01.329Z,14.80
2023-03-17T22:57:29.672Z,14.80
2023-03-17T22:59:58.420Z,14.80
2023-03-17T23:02:27.522Z,14.80
2023-03-17T23:04:55.916Z,14.80
2023-03-17T23:07:24.210Z,14.80
2023-03-17T23:09:52.915Z,14.80
2023-03-17T23:12:24.556Z,14.80
2023-03-17T23:14:53.150Z,14.80
2023-03-17T23:17:21.886Z,14.80
2023-03-17T23:19:50.174Z,14.80
2023-03-17T23:22:18.570Z,14.80
2023-03-17T23:24:47.297Z,14.80
2023-03-17T23:27:15.904Z,14.70
2023-03-17T23:29:45.700Z,14.70
2023-03-17T23:32:14.350Z,14.70
2023-03-17T23:34:42.696Z,14.70
2023-03-17T23:37:11.257Z,14.80
2023-03-17T23:39:40.388Z,14.70
2023-03-17T23:42:08.928Z,14.70
2023-03-17T23:44:37.369Z,14.70
2023-03-17T23:47:07.478Z,14.70
2023-03-17T23:49:38.974Z,14.70
2023-03-17T23:52:07.615Z,14.70
2023-03-17T23:54:36.425Z,14.70
2023-03-17T23:57:04.856Z,14.70
2023-03-17T23:59:33.202Z,14.60
